Canso, Canada
Current Conditions -  °F | °C
As of 12:00 AM on Friday 19 Dec 2014 (Local Time) from CYPD Reporting Station
Scattered Clouds Scattered Clouds  
Wind Chill: 32°   Ceiling: Unl
Heat Index: 32°   Visibility: 9mi
Dew Point: 30°   Wind: 3mph
Humidity: 93%   Direction: 190°S
Pressure: 29.4"   Gusts: NA
Location:  45.34°N, 61°W
Report Text: CYPD 190400Z AUTO 19003KT 9SM SCT032 00/M01 A2940 RMK SLP961
Loading
Personal Weather Stations






























Interactive Weather Map New forecast layout! Learn more

10-Day Weather Forecast

Advertisements
Track Severe Weather on mobile